Prichard, West Virginia
Current Conditions -  °F | °C
As of 11:51 PM on Friday 28 Nov 2014 (Local Time) from KHTS Reporting Station
Clear Clear  
Wind Chill: 24°   Ceiling: Unl
Heat Index: 29°   Visibility: 10mi
Dew Point: 20°   Wind: 5mph
Humidity: 69%   Direction: 110°ESE
Pressure: 30.15"   Gusts: NA
Location:  38.24°N, 82.6°W
Report Text: KHTS 290451Z 11004KT 10SM CLR M02/M07 A3015 RMK AO2 SLP216 T10171067 400171028
Loading
Personal Weather Stations






























Interactive Weather Map New forecast layout! Learn more

10-Day Weather Forecast

Advertisements
Track Severe Weather on mobile